sensor_id;sensor_type;location;lat;lon;timestamp;P1;durP1;ratioP1;P2;durP2;ratioP2
76115;SDS011;64847;45.778;12.802;2023-09-19T00:02:00;8.82;;;8.02;;
76115;SDS011;64847;45.778;12.802;2023-09-19T00:04:26;8.82;;;8.13;;
76115;SDS011;64847;45.778;12.802;2023-09-19T00:06:54;8.65;;;7.95;;
76115;SDS011;64847;45.778;12.802;2023-09-19T00:09:19;8.30;;;7.65;;
76115;SDS011;64847;45.778;12.802;2023-09-19T00:11:45;8.90;;;8.15;;
76115;SDS011;64847;45.778;12.802;2023-09-19T00:14:12;9.15;;;8.32;;
76115;SDS011;64847;45.778;12.802;2023-09-19T00:16:39;9.02;;;8.32;;
76115;SDS011;64847;45.778;12.802;2023-09-19T00:19:06;8.63;;;8.02;;
76115;SDS011;64847;45.778;12.802;2023-09-19T00:21:32;8.82;;;8.13;;
76115;SDS011;64847;45.778;12.802;2023-09-19T00:23:58;8.05;;;7.35;;
76115;SDS011;64847;45.778;12.802;2023-09-19T00:26:23;8.55;;;7.95;;
76115;SDS011;64847;45.778;12.802;2023-09-19T00:28:51;8.70;;;8.00;;
76115;SDS011;64847;45.778;12.802;2023-09-19T00:31:17;8.93;;;8.13;;
76115;SDS011;64847;45.778;12.802;2023-09-19T00:33:43;8.65;;;7.95;;
76115;SDS011;64847;45.778;12.802;2023-09-19T00:36:08;8.57;;;7.78;;
76115;SDS011;64847;45.778;12.802;2023-09-19T00:38:34;9.00;;;8.15;;
76115;SDS011;64847;45.778;12.802;2023-09-19T00:40:59;9.02;;;8.23;;
76115;SDS011;64847;45.778;12.802;2023-09-19T00:43:25;8.48;;;7.78;;
76115;SDS011;64847;45.778;12.802;2023-09-19T00:45:52;8.98;;;8.13;;
76115;SDS011;64847;45.778;12.802;2023-09-19T00:48:19;8.70;;;8.10;;
76115;SDS011;64847;45.778;12.802;2023-09-19T00:50:46;8.18;;;7.43;;
76115;SDS011;64847;45.778;12.802;2023-09-19T00:53:13;8.85;;;8.15;;
76115;SDS011;64847;45.778;12.802;2023-09-19T00:55:39;8.27;;;7.63;;
76115;SDS011;64847;45.778;12.802;2023-09-19T00:58:07;8.48;;;7.88;;
76115;SDS011;64847;45.778;12.802;2023-09-19T01:00:33;8.90;;;8.13;;
76115;SDS011;64847;45.778;12.802;2023-09-19T01:03:02;8.10;;;7.50;;
76115;SDS011;64847;45.778;12.802;2023-09-19T01:05:28;7.90;;;7.22;;
76115;SDS011;64847;45.778;12.802;2023-09-19T01:07:54;8.18;;;7.57;;
76115;SDS011;64847;45.778;12.802;2023-09-19T01:10:20;8.48;;;7.80;;
76115;SDS011;64847;45.778;12.802;2023-09-19T01:15:16;8.35;;;7.63;;
76115;SDS011;64847;45.778;12.802;2023-09-19T01:17:59;8.63;;;7.93;;
76115;SDS011;64847;45.778;12.802;2023-09-19T01:20:39;8.45;;;7.53;;
76115;SDS011;64847;45.778;12.802;2023-09-19T01:32:05;8.60;;;7.97;;
76115;SDS011;64847;45.778;12.802;2023-09-19T01:37:23;7.07;;;6.53;;
76115;SDS011;64847;45.778;12.802;2023-09-19T01:39:53;7.63;;;7.15;;
76115;SDS011;64847;45.778;12.802;2023-09-19T01:42:31;8.77;;;8.02;;
76115;SDS011;64847;45.778;12.802;2023-09-19T01:47:48;8.30;;;7.63;;
76115;SDS011;64847;45.778;12.802;2023-09-19T01:53:07;7.60;;;7.10;;
76115;SDS011;64847;45.778;12.802;2023-09-19T01:55:47;8.57;;;7.72;;
76115;SDS011;64847;45.778;12.802;2023-09-19T01:58:18;9.27;;;8.40;;
76115;SDS011;64847;45.778;12.802;2023-09-19T02:01:04;7.18;;;6.63;;
76115;SDS011;64847;45.778;12.802;2023-09-19T02:03:31;8.75;;;7.85;;
76115;SDS011;64847;45.778;12.802;2023-09-19T02:05:57;8.68;;;7.68;;
76115;SDS011;64847;45.778;12.802;2023-09-19T02:08:22;9.70;;;8.18;;
76115;SDS011;64847;45.778;12.802;2023-09-19T02:10:51;8.63;;;7.90;;
76115;SDS011;64847;45.778;12.802;2023-09-19T02:13:18;9.00;;;8.20;;
76115;SDS011;64847;45.778;12.802;2023-09-19T02:15:44;8.38;;;7.68;;
76115;SDS011;64847;45.778;12.802;2023-09-19T02:18:10;9.25;;;8.15;;
76115;SDS011;64847;45.778;12.802;2023-09-19T02:20:36;8.93;;;8.13;;
76115;SDS011;64847;45.778;12.802;2023-09-19T02:23:02;8.57;;;7.97;;
76115;SDS011;64847;45.778;12.802;2023-09-19T02:25:28;8.73;;;8.13;;
76115;SDS011;64847;45.778;12.802;2023-09-19T02:27:54;8.77;;;7.85;;
76115;SDS011;64847;45.778;12.802;2023-09-19T02:30:19;8.27;;;7.57;;
76115;SDS011;64847;45.778;12.802;2023-09-19T02:32:50;7.85;;;7.18;;
76115;SDS011;64847;45.778;12.802;2023-09-19T02:35:15;9.50;;;8.60;;
76115;SDS011;64847;45.778;12.802;2023-09-19T02:37:44;9.00;;;8.20;;
76115;SDS011;64847;45.778;12.802;2023-09-19T02:40:10;8.73;;;8.10;;
76115;SDS011;64847;45.778;12.802;2023-09-19T02:42:47;8.98;;;8.07;;
76115;SDS011;64847;45.778;12.802;2023-09-19T02:45:15;9.27;;;8.43;;
76115;SDS011;64847;45.778;12.802;2023-09-19T02:47:43;9.13;;;8.40;;
76115;SDS011;64847;45.778;12.802;2023-09-19T02:50:09;9.35;;;8.63;;
76115;SDS011;64847;45.778;12.802;2023-09-19T02:52:36;8.65;;;7.97;;
76115;SDS011;64847;45.778;12.802;2023-09-19T02:55:01;8.05;;;7.35;;
76115;SDS011;64847;45.778;12.802;2023-09-19T02:57:28;7.80;;;7.15;;
76115;SDS011;64847;45.778;12.802;2023-09-19T02:59:54;9.73;;;9.02;;
76115;SDS011;64847;45.778;12.802;2023-09-19T03:02:20;9.73;;;8.85;;
76115;SDS011;64847;45.778;12.802;2023-09-19T03:04:49;9.35;;;8.63;;
76115;SDS011;64847;45.778;12.802;2023-09-19T03:07:16;8.15;;;7.55;;
76115;SDS011;64847;45.778;12.802;2023-09-19T03:09:42;9.20;;;8.50;;
76115;SDS011;64847;45.778;12.802;2023-09-19T03:12:08;8.48;;;7.78;;
76115;SDS011;64847;45.778;12.802;2023-09-19T03:14:33;9.00;;;8.20;;
76115;SDS011;64847;45.778;12.802;2023-09-19T03:17:00;8.23;;;7.53;;
76115;SDS011;64847;45.778;12.802;2023-09-19T03:19:29;8.32;;;7.72;;
76115;SDS011;64847;45.778;12.802;2023-09-19T03:21:55;8.52;;;7.72;;
76115;SDS011;64847;45.778;12.802;2023-09-19T03:24:22;8.43;;;7.72;;
76115;SDS011;64847;45.778;12.802;2023-09-19T03:26:48;8.27;;;7.57;;
76115;SDS011;64847;45.778;12.802;2023-09-19T03:29:14;7.90;;;7.28;;
76115;SDS011;64847;45.778;12.802;2023-09-19T03:31:40;8.23;;;7.63;;
76115;SDS011;64847;45.778;12.802;2023-09-19T03:34:06;8.25;;;7.53;;
76115;SDS011;64847;45.778;12.802;2023-09-19T03:36:31;7.47;;;6.90;;
76115;SDS011;64847;45.778;12.802;2023-09-19T03:39:00;7.65;;;7.05;;
76115;SDS011;64847;45.778;12.802;2023-09-19T03:41:30;8.18;;;7.47;;
76115;SDS011;64847;45.778;12.802;2023-09-19T03:43:56;8.32;;;7.72;;
76115;SDS011;64847;45.778;12.802;2023-09-19T03:46:21;7.35;;;6.75;;
76115;SDS011;64847;45.778;12.802;2023-09-19T03:48:47;8.00;;;7.40;;
76115;SDS011;64847;45.778;12.802;2023-09-19T03:51:12;7.90;;;7.32;;
76115;SDS011;64847;45.778;12.802;2023-09-19T03:53:38;7.68;;;7.18;;
76115;SDS011;64847;45.778;12.802;2023-09-19T03:56:03;7.60;;;7.00;;
76115;SDS011;64847;45.778;12.802;2023-09-19T03:58:28;7.53;;;7.03;;
76115;SDS011;64847;45.778;12.802;2023-09-19T04:00:57;7.28;;;6.43;;
76115;SDS011;64847;45.778;12.802;2023-09-19T04:03:23;7.40;;;6.90;;
76115;SDS011;64847;45.778;12.802;2023-09-19T04:05:49;7.53;;;6.93;;
76115;SDS011;64847;45.778;12.802;2023-09-19T04:08:15;7.82;;;7.32;;
76115;SDS011;64847;45.778;12.802;2023-09-19T04:10:41;7.60;;;7.10;;
76115;SDS011;64847;45.778;12.802;2023-09-19T04:13:08;7.43;;;6.85;;
76115;SDS011;64847;45.778;12.802;2023-09-19T04:15:34;8.13;;;7.32;;
76115;SDS011;64847;45.778;12.802;2023-09-19T04:17:59;7.50;;;6.90;;
76115;SDS011;64847;45.778;12.802;2023-09-19T04:20:25;7.68;;;6.80;;
76115;SDS011;64847;45.778;12.802;2023-09-19T04:22:50;6.90;;;6.40;;
76115;SDS011;64847;45.778;12.802;2023-09-19T04:25:16;6.20;;;5.80;;
76115;SDS011;64847;45.778;12.802;2023-09-19T04:27:43;5.78;;;5.45;;
76115;SDS011;64847;45.778;12.802;2023-09-19T04:30:09;5.95;;;5.50;;
76115;SDS011;64847;45.778;12.802;2023-09-19T04:32:36;5.05;;;4.75;;
76115;SDS011;64847;45.778;12.802;2023-09-19T04:35:05;5.95;;;5.55;;
76115;SDS011;64847;45.778;12.802;2023-09-19T04:37:35;6.43;;;6.03;;
76115;SDS011;64847;45.778;12.802;2023-09-19T04:40:05;6.63;;;6.13;;
76115;SDS011;64847;45.778;12.802;2023-09-19T04:42:37;7.10;;;6.60;;
76115;SDS011;64847;45.778;12.802;2023-09-19T04:45:03;7.30;;;6.80;;
76115;SDS011;64847;45.778;12.802;2023-09-19T04:47:30;7.25;;;6.65;;
76115;SDS011;64847;45.778;12.802;2023-09-19T04:49:55;9.05;;;8.15;;
76115;SDS011;64847;45.778;12.802;2023-09-19T04:52:23;9.75;;;8.85;;
76115;SDS011;64847;45.778;12.802;2023-09-19T04:54:48;8.90;;;8.20;;
76115;SDS011;64847;45.778;12.802;2023-09-19T04:57:14;10.15;;;9.32;;
76115;SDS011;64847;45.778;12.802;2023-09-19T04:59:40;10.00;;;9.10;;
76115;SDS011;64847;45.778;12.802;2023-09-19T05:02:06;10.68;;;9.77;;
76115;SDS011;64847;45.778;12.802;2023-09-19T05:04:33;9.57;;;8.88;;
76115;SDS011;64847;45.778;12.802;2023-09-19T05:06:58;9.98;;;9.05;;
76115;SDS011;64847;45.778;12.802;2023-09-19T05:09:26;8.93;;;8.30;;
76115;SDS011;64847;45.778;12.802;2023-09-19T05:11:51;9.23;;;8.38;;
76115;SDS011;64847;45.778;12.802;2023-09-19T05:14:18;8.20;;;7.60;;
76115;SDS011;64847;45.778;12.802;2023-09-19T05:16:44;8.45;;;7.75;;
76115;SDS011;64847;45.778;12.802;2023-09-19T05:19:09;8.07;;;7.47;;
76115;SDS011;64847;45.778;12.802;2023-09-19T05:21:36;8.02;;;7.53;;
76115;SDS011;64847;45.778;12.802;2023-09-19T05:24:04;7.65;;;7.15;;
76115;SDS011;64847;45.778;12.802;2023-09-19T05:26:31;7.90;;;7.38;;
76115;SDS011;64847;45.778;12.802;2023-09-19T05:28:57;7.13;;;6.63;;
76115;SDS011;64847;45.778;12.802;2023-09-19T05:31:22;7.05;;;6.45;;
76115;SDS011;64847;45.778;12.802;2023-09-19T05:33:58;7.07;;;6.57;;
76115;SDS011;64847;45.778;12.802;2023-09-19T05:36:26;6.47;;;6.07;;
76115;SDS011;64847;45.778;12.802;2023-09-19T05:38:51;7.88;;;7.18;;
76115;SDS011;64847;45.778;12.802;2023-09-19T05:41:17;6.80;;;6.40;;
76115;SDS011;64847;45.778;12.802;2023-09-19T05:43:43;7.57;;;7.07;;
76115;SDS011;64847;45.778;12.802;2023-09-19T05:46:08;7.35;;;6.65;;
76115;SDS011;64847;45.778;12.802;2023-09-19T05:48:34;6.82;;;6.43;;
76115;SDS011;64847;45.778;12.802;2023-09-19T05:50:59;9.10;;;6.97;;
76115;SDS011;64847;45.778;12.802;2023-09-19T05:53:26;6.65;;;6.25;;
76115;SDS011;64847;45.778;12.802;2023-09-19T05:55:51;8.13;;;7.43;;
76115;SDS011;64847;45.778;12.802;2023-09-19T05:58:18;7.38;;;6.93;;
76115;SDS011;64847;45.778;12.802;2023-09-19T06:00:44;7.03;;;6.63;;
76115;SDS011;64847;45.778;12.802;2023-09-19T06:03:12;6.75;;;6.35;;
76115;SDS011;64847;45.778;12.802;2023-09-19T06:05:38;6.72;;;6.32;;
76115;SDS011;64847;45.778;12.802;2023-09-19T06:08:04;7.03;;;6.63;;
76115;SDS011;64847;45.778;12.802;2023-09-19T06:10:32;6.97;;;6.53;;
76115;SDS011;64847;45.778;12.802;2023-09-19T06:13:04;8.10;;;7.50;;
76115;SDS011;64847;45.778;12.802;2023-09-19T06:15:30;8.18;;;7.63;;
76115;SDS011;64847;45.778;12.802;2023-09-19T06:17:58;9.13;;;8.52;;
76115;SDS011;64847;45.778;12.802;2023-09-19T06:20:24;10.65;;;9.82;;
76115;SDS011;64847;45.778;12.802;2023-09-19T06:22:51;10.35;;;9.48;;
76115;SDS011;64847;45.778;12.802;2023-09-19T06:25:17;10.85;;;10.05;;
76115;SDS011;64847;45.778;12.802;2023-09-19T06:30:12;10.98;;;10.10;;
76115;SDS011;64847;45.778;12.802;2023-09-19T06:32:42;11.25;;;10.25;;
76115;SDS011;64847;45.778;12.802;2023-09-19T06:35:11;12.05;;;10.75;;
76115;SDS011;64847;45.778;12.802;2023-09-19T06:37:40;10.95;;;10.05;;
76115;SDS011;64847;45.778;12.802;2023-09-19T06:42:34;9.15;;;8.45;;
76115;SDS011;64847;45.778;12.802;2023-09-19T06:45:02;9.05;;;8.20;;
76115;SDS011;64847;45.778;12.802;2023-09-19T06:47:28;12.95;;;10.30;;
76115;SDS011;64847;45.778;12.802;2023-09-19T06:49:57;12.63;;;11.27;;
76115;SDS011;64847;45.778;12.802;2023-09-19T06:52:22;12.60;;;11.30;;
76115;SDS011;64847;45.778;12.802;2023-09-19T06:54:48;11.95;;;10.93;;
76115;SDS011;64847;45.778;12.802;2023-09-19T06:57:15;12.77;;;11.48;;
76115;SDS011;64847;45.778;12.802;2023-09-19T06:59:41;12.65;;;10.82;;
76115;SDS011;64847;45.778;12.802;2023-09-19T07:02:07;11.23;;;10.23;;
76115;SDS011;64847;45.778;12.802;2023-09-19T07:04:33;10.90;;;9.93;;
76115;SDS011;64847;45.778;12.802;2023-09-19T07:06:59;11.18;;;10.05;;
76115;SDS011;64847;45.778;12.802;2023-09-19T07:09:24;9.95;;;8.93;;
76115;SDS011;64847;45.778;12.802;2023-09-19T07:11:52;11.70;;;10.50;;
76115;SDS011;64847;45.778;12.802;2023-09-19T07:14:18;10.82;;;9.80;;
76115;SDS011;64847;45.778;12.802;2023-09-19T07:16:43;10.60;;;9.55;;
76115;SDS011;64847;45.778;12.802;2023-09-19T07:19:10;11.48;;;10.27;;
76115;SDS011;64847;45.778;12.802;2023-09-19T07:21:36;10.07;;;9.18;;
76115;SDS011;64847;45.778;12.802;2023-09-19T07:24:03;9.90;;;8.93;;
76115;SDS011;64847;45.778;12.802;2023-09-19T07:26:28;9.60;;;8.80;;
76115;SDS011;64847;45.778;12.802;2023-09-19T07:28:54;8.95;;;8.00;;
76115;SDS011;64847;45.778;12.802;2023-09-19T07:31:20;10.38;;;9.35;;
76115;SDS011;64847;45.778;12.802;2023-09-19T07:33:47;9.63;;;8.50;;
76115;SDS011;64847;45.778;12.802;2023-09-19T07:36:13;9.30;;;8.38;;
76115;SDS011;64847;45.778;12.802;2023-09-19T07:38:39;7.57;;;6.82;;
76115;SDS011;64847;45.778;12.802;2023-09-19T07:41:06;7.03;;;6.32;;
76115;SDS011;64847;45.778;12.802;2023-09-19T07:43:33;6.50;;;5.70;;
76115;SDS011;64847;45.778;12.802;2023-09-19T07:46:04;6.00;;;5.50;;
76115;SDS011;64847;45.778;12.802;2023-09-19T07:48:33;5.88;;;5.38;;
76115;SDS011;64847;45.778;12.802;2023-09-19T07:51:03;5.65;;;5.13;;
76115;SDS011;64847;45.778;12.802;2023-09-19T07:53:32;5.45;;;4.70;;
76115;SDS011;64847;45.778;12.802;2023-09-19T07:56:02;5.13;;;4.53;;
76115;SDS011;64847;45.778;12.802;2023-09-19T07:58:31;4.88;;;4.38;;
76115;SDS011;64847;45.778;12.802;2023-09-19T08:03:37;7.93;;;4.60;;
76115;SDS011;64847;45.778;12.802;2023-09-19T08:06:05;7.05;;;5.07;;
76115;SDS011;64847;45.778;12.802;2023-09-19T08:08:32;6.10;;;4.30;;
76115;SDS011;64847;45.778;12.802;2023-09-19T08:11:02;4.70;;;4.30;;
76115;SDS011;64847;45.778;12.802;2023-09-19T08:13:48;4.45;;;4.00;;
76115;SDS011;64847;45.778;12.802;2023-09-19T08:16:17;5.72;;;4.50;;
76115;SDS011;64847;45.778;12.802;2023-09-19T08:18:48;4.10;;;3.80;;
76115;SDS011;64847;45.778;12.802;2023-09-19T08:21:18;4.25;;;3.95;;
76115;SDS011;64847;45.778;12.802;2023-09-19T08:23:44;4.90;;;4.10;;
76115;SDS011;64847;45.778;12.802;2023-09-19T08:26:10;5.20;;;3.88;;
76115;SDS011;64847;45.778;12.802;2023-09-19T08:28:39;7.97;;;4.20;;
76115;SDS011;64847;45.778;12.802;2023-09-19T08:31:09;3.90;;;3.47;;
76115;SDS011;64847;45.778;12.802;2023-09-19T08:33:36;4.90;;;3.53;;
76115;SDS011;64847;45.778;12.802;2023-09-19T08:36:03;4.53;;;4.10;;
76115;SDS011;64847;45.778;12.802;2023-09-19T08:38:34;4.95;;;3.75;;
76115;SDS011;64847;45.778;12.802;2023-09-19T08:41:09;4.50;;;3.75;;
76115;SDS011;64847;45.778;12.802;2023-09-19T08:43:35;5.20;;;3.58;;
76115;SDS011;64847;45.778;12.802;2023-09-19T08:48:33;4.70;;;3.83;;
76115;SDS011;64847;45.778;12.802;2023-09-19T08:51:42;4.18;;;3.53;;
76115;SDS011;64847;45.778;12.802;2023-09-19T08:54:31;6.90;;;4.38;;
76115;SDS011;64847;45.778;12.802;2023-09-19T08:57:05;4.90;;;3.88;;
76115;SDS011;64847;45.778;12.802;2023-09-19T08:59:39;5.53;;;3.47;;
76115;SDS011;64847;45.778;12.802;2023-09-19T09:02:12;7.50;;;3.58;;
76115;SDS011;64847;45.778;12.802;2023-09-19T09:04:40;4.50;;;3.40;;
76115;SDS011;64847;45.778;12.802;2023-09-19T09:07:15;4.50;;;3.58;;
76115;SDS011;64847;45.778;12.802;2023-09-19T09:10:24;5.45;;;3.63;;
76115;SDS011;64847;45.778;12.802;2023-09-19T09:12:37;7.03;;;3.83;;
76115;SDS011;64847;45.778;12.802;2023-09-19T09:15:04;5.07;;;3.70;;
76115;SDS011;64847;45.778;12.802;2023-09-19T09:17:40;5.28;;;3.85;;
76115;SDS011;64847;45.778;12.802;2023-09-19T09:20:08;5.15;;;3.83;;
76115;SDS011;64847;45.778;12.802;2023-09-19T09:22:35;5.10;;;3.78;;
76115;SDS011;64847;45.778;12.802;2023-09-19T09:25:05;5.78;;;4.15;;
76115;SDS011;64847;45.778;12.802;2023-09-19T09:27:33;5.38;;;3.95;;
76115;SDS011;64847;45.778;12.802;2023-09-19T09:29:59;5.75;;;4.07;;
76115;SDS011;64847;45.778;12.802;2023-09-19T09:34:54;6.18;;;3.63;;
76115;SDS011;64847;45.778;12.802;2023-09-19T09:37:21;6.35;;;4.20;;
76115;SDS011;64847;45.778;12.802;2023-09-19T09:39:50;5.35;;;4.28;;
76115;SDS011;64847;45.778;12.802;2023-09-19T09:42:33;6.28;;;4.32;;
76115;SDS011;64847;45.778;12.802;2023-09-19T09:47:59;6.95;;;4.10;;
76115;SDS011;64847;45.778;12.802;2023-09-19T09:50:29;7.18;;;3.60;;
76115;SDS011;64847;45.778;12.802;2023-09-19T09:53:29;8.07;;;4.05;;
76115;SDS011;64847;45.778;12.802;2023-09-19T09:56:07;4.70;;;3.90;;
76115;SDS011;64847;45.778;12.802;2023-09-19T10:01:05;5.65;;;4.10;;
76115;SDS011;64847;45.778;12.802;2023-09-19T10:03:36;6.25;;;4.32;;
76115;SDS011;64847;45.778;12.802;2023-09-19T10:06:25;3.83;;;3.22;;
76115;SDS011;64847;45.778;12.802;2023-09-19T10:11:45;6.72;;;4.30;;
76115;SDS011;64847;45.778;12.802;2023-09-19T10:14:30;5.10;;;3.88;;
76115;SDS011;64847;45.778;12.802;2023-09-19T10:16:59;4.65;;;3.95;;
76115;SDS011;64847;45.778;12.802;2023-09-19T10:19:29;5.75;;;3.90;;
76115;SDS011;64847;45.778;12.802;2023-09-19T10:21:58;4.47;;;3.42;;
76115;SDS011;64847;45.778;12.802;2023-09-19T10:24:25;4.18;;;3.40;;
76115;SDS011;64847;45.778;12.802;2023-09-19T10:26:52;4.03;;;3.58;;
76115;SDS011;64847;45.778;12.802;2023-09-19T10:29:19;4.85;;;3.38;;
76115;SDS011;64847;45.778;12.802;2023-09-19T10:31:46;4.65;;;3.33;;
76115;SDS011;64847;45.778;12.802;2023-09-19T10:34:15;5.43;;;4.00;;
76115;SDS011;64847;45.778;12.802;2023-09-19T10:36:45;6.13;;;3.65;;
76115;SDS011;64847;45.778;12.802;2023-09-19T10:39:14;4.53;;;4.13;;
76115;SDS011;64847;45.778;12.802;2023-09-19T10:41:53;6.63;;;3.67;;
76115;SDS011;64847;45.778;12.802;2023-09-19T10:44:21;5.78;;;3.75;;
76115;SDS011;64847;45.778;12.802;2023-09-19T10:46:49;4.05;;;3.75;;
76115;SDS011;64847;45.778;12.802;2023-09-19T10:49:15;6.00;;;4.18;;
76115;SDS011;64847;45.778;12.802;2023-09-19T10:51:41;6.07;;;4.38;;
76115;SDS011;64847;45.778;12.802;2023-09-19T10:54:11;5.30;;;4.25;;
76115;SDS011;64847;45.778;12.802;2023-09-19T10:56:38;5.15;;;3.65;;
76115;SDS011;64847;45.778;12.802;2023-09-19T10:59:10;6.47;;;3.80;;
76115;SDS011;64847;45.778;12.802;2023-09-19T11:01:51;4.35;;;3.60;;
76115;SDS011;64847;45.778;12.802;2023-09-19T11:04:30;5.18;;;3.60;;
76115;SDS011;64847;45.778;12.802;2023-09-19T11:07:09;7.78;;;3.63;;
76115;SDS011;64847;45.778;12.802;2023-09-19T11:09:46;4.05;;;3.17;;
76115;SDS011;64847;45.778;12.802;2023-09-19T11:14:59;4.72;;;3.33;;
76115;SDS011;64847;45.778;12.802;2023-09-19T11:25:41;3.75;;;3.35;;
76115;SDS011;64847;45.778;12.802;2023-09-19T11:30:43;3.38;;;2.88;;
76115;SDS011;64847;45.778;12.802;2023-09-19T11:33:15;4.15;;;3.30;;
76115;SDS011;64847;45.778;12.802;2023-09-19T11:36:19;4.00;;;3.03;;
76115;SDS011;64847;45.778;12.802;2023-09-19T11:49:18;4.45;;;3.03;;
76115;SDS011;64847;45.778;12.802;2023-09-19T11:51:50;4.68;;;3.35;;
76115;SDS011;64847;45.778;12.802;2023-09-19T11:54:19;6.43;;;3.40;;
76115;SDS011;64847;45.778;12.802;2023-09-19T11:56:50;5.68;;;3.35;;
76115;SDS011;64847;45.778;12.802;2023-09-19T11:59:29;5.63;;;3.60;;
76115;SDS011;64847;45.778;12.802;2023-09-19T12:02:05;7.72;;;3.38;;
76115;SDS011;64847;45.778;12.802;2023-09-19T12:04:37;4.40;;;3.33;;
76115;SDS011;64847;45.778;12.802;2023-09-19T12:07:12;3.60;;;2.92;;
76115;SDS011;64847;45.778;12.802;2023-09-19T12:09:45;4.20;;;3.00;;
76115;SDS011;64847;45.778;12.802;2023-09-19T12:12:26;6.20;;;3.85;;
76115;SDS011;64847;45.778;12.802;2023-09-19T12:14:52;6.10;;;3.80;;
76115;SDS011;64847;45.778;12.802;2023-09-19T12:17:18;5.85;;;3.50;;
76115;SDS011;64847;45.778;12.802;2023-09-19T12:19:51;7.78;;;4.30;;
76115;SDS011;64847;45.778;12.802;2023-09-19T12:22:17;5.40;;;3.92;;
76115;SDS011;64847;45.778;12.802;2023-09-19T12:24:44;6.43;;;4.00;;
76115;SDS011;64847;45.778;12.802;2023-09-19T12:27:10;7.32;;;4.38;;
76115;SDS011;64847;45.778;12.802;2023-09-19T12:29:48;4.07;;;3.60;;
76115;SDS011;64847;45.778;12.802;2023-09-19T12:32:15;5.13;;;3.20;;
76115;SDS011;64847;45.778;12.802;2023-09-19T12:34:52;4.95;;;4.22;;
76115;SDS011;64847;45.778;12.802;2023-09-19T12:37:19;7.60;;;4.78;;
76115;SDS011;64847;45.778;12.802;2023-09-19T12:39:53;4.80;;;4.00;;
76115;SDS011;64847;45.778;12.802;2023-09-19T12:42:24;6.70;;;5.10;;
76115;SDS011;64847;45.778;12.802;2023-09-19T12:44:57;5.88;;;4.28;;
76115;SDS011;64847;45.778;12.802;2023-09-19T12:47:25;7.38;;;4.88;;
76115;SDS011;64847;45.778;12.802;2023-09-19T12:50:05;5.80;;;4.20;;
76115;SDS011;64847;45.778;12.802;2023-09-19T12:52:48;6.32;;;4.93;;
76115;SDS011;64847;45.778;12.802;2023-09-19T12:55:30;7.20;;;3.70;;
76115;SDS011;64847;45.778;12.802;2023-09-19T12:58:08;6.82;;;4.10;;
76115;SDS011;64847;45.778;12.802;2023-09-19T13:00:38;4.28;;;3.40;;
76115;SDS011;64847;45.778;12.802;2023-09-19T13:05:56;6.95;;;4.47;;
76115;SDS011;64847;45.778;12.802;2023-09-19T13:08:32;7.85;;;4.03;;
76115;SDS011;64847;45.778;12.802;2023-09-19T13:11:00;7.80;;;4.25;;
76115;SDS011;64847;45.778;12.802;2023-09-19T13:13:46;9.00;;;4.95;;
76115;SDS011;64847;45.778;12.802;2023-09-19T13:16:19;7.93;;;4.57;;
76115;SDS011;64847;45.778;12.802;2023-09-19T13:18:49;5.60;;;4.00;;
76115;SDS011;64847;45.778;12.802;2023-09-19T13:21:16;5.85;;;3.42;;
76115;SDS011;64847;45.778;12.802;2023-09-19T13:23:51;5.57;;;3.90;;
76115;SDS011;64847;45.778;12.802;2023-09-19T13:26:18;5.50;;;3.65;;
76115;SDS011;64847;45.778;12.802;2023-09-19T13:28:44;9.02;;;4.28;;
76115;SDS011;64847;45.778;12.802;2023-09-19T13:31:10;6.60;;;4.30;;
76115;SDS011;64847;45.778;12.802;2023-09-19T13:33:48;6.60;;;3.53;;
76115;SDS011;64847;45.778;12.802;2023-09-19T13:36:14;5.22;;;4.00;;
76115;SDS011;64847;45.778;12.802;2023-09-19T13:38:42;5.45;;;3.78;;
76115;SDS011;64847;45.778;12.802;2023-09-19T13:41:08;6.28;;;3.55;;
76115;SDS011;64847;45.778;12.802;2023-09-19T13:43:35;9.50;;;4.47;;
76115;SDS011;64847;45.778;12.802;2023-09-19T13:46:02;4.47;;;3.40;;
76115;SDS011;64847;45.778;12.802;2023-09-19T13:48:27;6.25;;;3.80;;
76115;SDS011;64847;45.778;12.802;2023-09-19T13:50:55;5.32;;;3.70;;
76115;SDS011;64847;45.778;12.802;2023-09-19T13:53:21;5.43;;;3.20;;
76115;SDS011;64847;45.778;12.802;2023-09-19T13:55:46;4.28;;;3.03;;
76115;SDS011;64847;45.778;12.802;2023-09-19T13:58:13;3.70;;;3.35;;
76115;SDS011;64847;45.778;12.802;2023-09-19T14:00:39;5.45;;;3.22;;
76115;SDS011;64847;45.778;12.802;2023-09-19T14:03:04;5.95;;;3.53;;
76115;SDS011;64847;45.778;12.802;2023-09-19T14:05:30;5.35;;;3.42;;
76115;SDS011;64847;45.778;12.802;2023-09-19T14:07:56;5.88;;;3.75;;
76115;SDS011;64847;45.778;12.802;2023-09-19T14:10:24;5.72;;;3.63;;
76115;SDS011;64847;45.778;12.802;2023-09-19T14:12:50;5.60;;;3.20;;
76115;SDS011;64847;45.778;12.802;2023-09-19T14:15:15;4.28;;;3.40;;
76115;SDS011;64847;45.778;12.802;2023-09-19T14:17:41;5.90;;;3.40;;
76115;SDS011;64847;45.778;12.802;2023-09-19T14:20:11;5.25;;;3.00;;
76115;SDS011;64847;45.778;12.802;2023-09-19T14:22:36;6.80;;;3.20;;
76115;SDS011;64847;45.778;12.802;2023-09-19T14:25:04;4.05;;;3.22;;
76115;SDS011;64847;45.778;12.802;2023-09-19T14:27:30;4.97;;;3.20;;
76115;SDS011;64847;45.778;12.802;2023-09-19T14:29:56;4.60;;;3.15;;
76115;SDS011;64847;45.778;12.802;2023-09-19T14:32:24;8.27;;;3.90;;
76115;SDS011;64847;45.778;12.802;2023-09-19T14:34:49;7.82;;;3.72;;
76115;SDS011;64847;45.778;12.802;2023-09-19T14:37:15;8.07;;;3.92;;
76115;SDS011;64847;45.778;12.802;2023-09-19T14:39:46;6.03;;;3.25;;
76115;SDS011;64847;45.778;12.802;2023-09-19T14:42:11;5.70;;;3.45;;
76115;SDS011;64847;45.778;12.802;2023-09-19T14:44:37;8.00;;;3.70;;
76115;SDS011;64847;45.778;12.802;2023-09-19T14:47:03;6.30;;;3.83;;
76115;SDS011;64847;45.778;12.802;2023-09-19T14:49:33;6.18;;;3.42;;
76115;SDS011;64847;45.778;12.802;2023-09-19T14:51:58;7.95;;;3.90;;
76115;SDS011;64847;45.778;12.802;2023-09-19T14:54:24;4.95;;;4.00;;
76115;SDS011;64847;45.778;12.802;2023-09-19T14:56:49;6.07;;;3.47;;
76115;SDS011;64847;45.778;12.802;2023-09-19T14:59:19;4.88;;;3.65;;
76115;SDS011;64847;45.778;12.802;2023-09-19T15:01:46;6.90;;;4.18;;
76115;SDS011;64847;45.778;12.802;2023-09-19T15:04:11;8.50;;;4.18;;
76115;SDS011;64847;45.778;12.802;2023-09-19T15:06:37;6.10;;;3.80;;
76115;SDS011;64847;45.778;12.802;2023-09-19T15:09:07;7.07;;;4.13;;
76115;SDS011;64847;45.778;12.802;2023-09-19T15:11:39;6.93;;;3.80;;
76115;SDS011;64847;45.778;12.802;2023-09-19T15:14:05;6.63;;;4.00;;
76115;SDS011;64847;45.778;12.802;2023-09-19T15:16:30;5.90;;;3.88;;
76115;SDS011;64847;45.778;12.802;2023-09-19T15:18:57;6.80;;;4.10;;
76115;SDS011;64847;45.778;12.802;2023-09-19T15:21:24;7.68;;;4.13;;
76115;SDS011;64847;45.778;12.802;2023-09-19T15:23:49;5.13;;;3.90;;
76115;SDS011;64847;45.778;12.802;2023-09-19T15:26:15;7.32;;;4.40;;
76115;SDS011;64847;45.778;12.802;2023-09-19T15:28:45;4.75;;;3.88;;
76115;SDS011;64847;45.778;12.802;2023-09-19T15:31:11;7.88;;;4.55;;
76115;SDS011;64847;45.778;12.802;2023-09-19T15:33:38;6.75;;;3.88;;
76115;SDS011;64847;45.778;12.802;2023-09-19T15:36:10;5.70;;;4.00;;
76115;SDS011;64847;45.778;12.802;2023-09-19T15:41:37;5.63;;;3.25;;
76115;SDS011;64847;45.778;12.802;2023-09-19T15:44:04;6.10;;;3.60;;
76115;SDS011;64847;45.778;12.802;2023-09-19T15:46:38;6.90;;;4.20;;
76115;SDS011;64847;45.778;12.802;2023-09-19T15:49:07;6.57;;;4.15;;
76115;SDS011;64847;45.778;12.802;2023-09-19T15:51:33;5.60;;;3.97;;
76115;SDS011;64847;45.778;12.802;2023-09-19T15:54:00;6.90;;;4.00;;